sensor_id;sensor_type;location;lat;lon;timestamp;temperature;humidity
14057;DHT22;7103;54.300;10.180;2022-10-31T00:00:51;13.50;99.90
14057;DHT22;7103;54.300;10.180;2022-10-31T00:03:18;13.50;99.90
14057;DHT22;7103;54.300;10.180;2022-10-31T00:05:49;13.40;99.90
14057;DHT22;7103;54.300;10.180;2022-10-31T00:08:17;13.40;99.90
14057;DHT22;7103;54.300;10.180;2022-10-31T00:10:45;13.30;99.90
14057;DHT22;7103;54.300;10.180;2022-10-31T00:13:13;13.30;99.90
14057;DHT22;7103;54.300;10.180;2022-10-31T00:15:40;13.30;99.90
14057;DHT22;7103;54.300;10.180;2022-10-31T00:18:08;13.20;99.90
14057;DHT22;7103;54.300;10.180;2022-10-31T00:20:36;13.20;99.90
14057;DHT22;7103;54.300;10.180;2022-10-31T00:23:03;13.20;99.90
14057;DHT22;7103;54.300;10.180;2022-10-31T00:25:34;13.20;99.90
14057;DHT22;7103;54.300;10.180;2022-10-31T00:28:02;13.30;99.90
14057;DHT22;7103;54.300;10.180;2022-10-31T00:30:29;13.30;99.90
14057;DHT22;7103;54.300;10.180;2022-10-31T00:32:56;13.30;99.90
14057;DHT22;7103;54.300;10.180;2022-10-31T00:35:24;13.30;99.90
14057;DHT22;7103;54.300;10.180;2022-10-31T00:37:52;13.30;99.90
14057;DHT22;7103;54.300;10.180;2022-10-31T00:40:19;13.50;99.90
14057;DHT22;7103;54.300;10.180;2022-10-31T00:42:46;13.60;99.90
14057;DHT22;7103;54.300;10.180;2022-10-31T00:45:13;13.60;99.90
14057;DHT22;7103;54.300;10.180;2022-10-31T00:47:40;13.50;99.90
14057;DHT22;7103;54.300;10.180;2022-10-31T00:50:07;13.50;99.90
14057;DHT22;7103;54.300;10.180;2022-10-31T00:52:34;13.60;99.90
14057;DHT22;7103;54.300;10.180;2022-10-31T00:55:01;13.60;99.90
14057;DHT22;7103;54.300;10.180;2022-10-31T00:57:28;13.50;99.90
14057;DHT22;7103;54.300;10.180;2022-10-31T00:59:54;13.40;99.90
14057;DHT22;7103;54.300;10.180;2022-10-31T01:02:21;13.40;99.90
14057;DHT22;7103;54.300;10.180;2022-10-31T01:04:48;13.30;99.90
14057;DHT22;7103;54.300;10.180;2022-10-31T01:07:15;13.30;99.90
14057;DHT22;7103;54.300;10.180;2022-10-31T01:09:42;13.30;99.90
14057;DHT22;7103;54.300;10.180;2022-10-31T01:12:09;13.30;99.90
14057;DHT22;7103;54.300;10.180;2022-10-31T01:14:35;13.40;99.90
14057;DHT22;7103;54.300;10.180;2022-10-31T01:17:02;13.40;99.90
14057;DHT22;7103;54.300;10.180;2022-10-31T01:19:29;13.40;99.90
14057;DHT22;7103;54.300;10.180;2022-10-31T01:21:56;13.40;99.90
14057;DHT22;7103;54.300;10.180;2022-10-31T01:24:23;13.40;99.90
14057;DHT22;7103;54.300;10.180;2022-10-31T01:26:50;13.30;99.90
14057;DHT22;7103;54.300;10.180;2022-10-31T01:29:16;13.30;99.90
14057;DHT22;7103;54.300;10.180;2022-10-31T01:31:43;13.20;99.90
14057;DHT22;7103;54.300;10.180;2022-10-31T01:34:14;13.20;99.90
14057;DHT22;7103;54.300;10.180;2022-10-31T01:36:41;13.20;99.90
14057;DHT22;7103;54.300;10.180;2022-10-31T01:39:13;13.20;99.90
14057;DHT22;7103;54.300;10.180;2022-10-31T01:41:43;13.10;99.90
14057;DHT22;7103;54.300;10.180;2022-10-31T01:49:51;13.10;99.90
14057;DHT22;7103;54.300;10.180;2022-10-31T01:57:34;13.20;99.90
14057;DHT22;7103;54.300;10.180;2022-10-31T02:00:06;13.10;99.90
14057;DHT22;7103;54.300;10.180;2022-10-31T02:02:33;13.20;99.90
14057;DHT22;7103;54.300;10.180;2022-10-31T02:05:05;13.20;99.90
14057;DHT22;7103;54.300;10.180;2022-10-31T02:08:12;13.30;99.90
14057;DHT22;7103;54.300;10.180;2022-10-31T02:10:42;13.40;99.90
14057;DHT22;7103;54.300;10.180;2022-10-31T02:13:09;13.50;99.90
14057;DHT22;7103;54.300;10.180;2022-10-31T02:15:40;13.50;99.90
14057;DHT22;7103;54.300;10.180;2022-10-31T02:18:07;13.50;99.90
14057;DHT22;7103;54.300;10.180;2022-10-31T02:20:47;13.70;99.90
14057;DHT22;7103;54.300;10.180;2022-10-31T02:38:02;13.60;99.90
14057;DHT22;7103;54.300;10.180;2022-10-31T02:40:35;13.60;99.90
14057;DHT22;7103;54.300;10.180;2022-10-31T02:43:14;13.50;99.90
14057;DHT22;7103;54.300;10.180;2022-10-31T02:45:59;13.40;99.90
14057;DHT22;7103;54.300;10.180;2022-10-31T02:48:29;13.40;99.90
14057;DHT22;7103;54.300;10.180;2022-10-31T02:51:02;13.30;99.90
14057;DHT22;7103;54.300;10.180;2022-10-31T02:53:33;13.40;99.90
14057;DHT22;7103;54.300;10.180;2022-10-31T02:56:15;13.40;99.90
14057;DHT22;7103;54.300;10.180;2022-10-31T02:58:51;13.40;99.90
14057;DHT22;7103;54.300;10.180;2022-10-31T03:07:21;13.50;99.90
14057;DHT22;7103;54.300;10.180;2022-10-31T03:09:55;13.50;99.90
14057;DHT22;7103;54.300;10.180;2022-10-31T03:15:14;13.40;99.90
14057;DHT22;7103;54.300;10.180;2022-10-31T03:20:40;13.40;99.90
14057;DHT22;7103;54.300;10.180;2022-10-31T03:23:12;13.40;99.90
14057;DHT22;7103;54.300;10.180;2022-10-31T03:25:40;13.40;99.90
14057;DHT22;7103;54.300;10.180;2022-10-31T03:28:09;13.40;99.90
14057;DHT22;7103;54.300;10.180;2022-10-31T03:30:41;13.40;99.90
14057;DHT22;7103;54.300;10.180;2022-10-31T03:33:13;13.40;99.90
14057;DHT22;7103;54.300;10.180;2022-10-31T03:35:44;13.40;99.90
14057;DHT22;7103;54.300;10.180;2022-10-31T03:38:12;13.40;99.90
14057;DHT22;7103;54.300;10.180;2022-10-31T03:40:43;13.40;99.90
14057;DHT22;7103;54.300;10.180;2022-10-31T03:43:16;13.40;99.90
14057;DHT22;7103;54.300;10.180;2022-10-31T03:45:45;13.50;99.90
14057;DHT22;7103;54.300;10.180;2022-10-31T03:48:14;13.40;99.90
14057;DHT22;7103;54.300;10.180;2022-10-31T03:53:17;13.40;99.90
14057;DHT22;7103;54.300;10.180;2022-10-31T03:55:50;13.40;99.90
14057;DHT22;7103;54.300;10.180;2022-10-31T03:58:22;13.40;99.90
14057;DHT22;7103;54.300;10.180;2022-10-31T04:00:54;13.50;99.90
14057;DHT22;7103;54.300;10.180;2022-10-31T04:03:28;13.40;99.90
14057;DHT22;7103;54.300;10.180;2022-10-31T04:06:00;13.40;99.90
14057;DHT22;7103;54.300;10.180;2022-10-31T04:08:30;13.40;99.90
14057;DHT22;7103;54.300;10.180;2022-10-31T04:11:00;13.40;99.90
14057;DHT22;7103;54.300;10.180;2022-10-31T04:13:30;13.40;99.90
14057;DHT22;7103;54.300;10.180;2022-10-31T04:15:58;13.40;99.90
14057;DHT22;7103;54.300;10.180;2022-10-31T04:18:25;13.40;99.90
14057;DHT22;7103;54.300;10.180;2022-10-31T04:21:04;13.40;99.90
14057;DHT22;7103;54.300;10.180;2022-10-31T04:23:32;13.40;99.90
14057;DHT22;7103;54.300;10.180;2022-10-31T04:26:00;13.40;99.90
14057;DHT22;7103;54.300;10.180;2022-10-31T04:28:27;13.50;99.90
14057;DHT22;7103;54.300;10.180;2022-10-31T04:30:54;13.50;99.90
14057;DHT22;7103;54.300;10.180;2022-10-31T04:33:21;13.40;99.90
14057;DHT22;7103;54.300;10.180;2022-10-31T04:35:47;13.50;99.90
14057;DHT22;7103;54.300;10.180;2022-10-31T04:38:14;13.50;99.90
14057;DHT22;7103;54.300;10.180;2022-10-31T04:40:41;13.50;99.90
14057;DHT22;7103;54.300;10.180;2022-10-31T04:43:08;13.60;99.90
14057;DHT22;7103;54.300;10.180;2022-10-31T04:45:35;13.60;99.90
14057;DHT22;7103;54.300;10.180;2022-10-31T04:48:02;13.60;99.90
14057;DHT22;7103;54.300;10.180;2022-10-31T04:50:29;13.60;99.90
14057;DHT22;7103;54.300;10.180;2022-10-31T04:52:56;13.60;99.90
14057;DHT22;7103;54.300;10.180;2022-10-31T04:55:23;13.60;99.90
14057;DHT22;7103;54.300;10.180;2022-10-31T04:57:50;13.60;99.90
14057;DHT22;7103;54.300;10.180;2022-10-31T05:00:19;13.60;99.90
14057;DHT22;7103;54.300;10.180;2022-10-31T05:02:51;13.70;99.90
14057;DHT22;7103;54.300;10.180;2022-10-31T05:05:21;13.70;99.90
14057;DHT22;7103;54.300;10.180;2022-10-31T05:07:49;13.50;99.90
14057;DHT22;7103;54.300;10.180;2022-10-31T05:10:18;13.50;99.90
14057;DHT22;7103;54.300;10.180;2022-10-31T05:12:57;13.50;99.90
14057;DHT22;7103;54.300;10.180;2022-10-31T05:15:26;13.60;99.90
14057;DHT22;7103;54.300;10.180;2022-10-31T05:17:54;13.50;99.90
14057;DHT22;7103;54.300;10.180;2022-10-31T05:20:23;13.50;99.90
14057;DHT22;7103;54.300;10.180;2022-10-31T05:22:52;13.40;99.90
14057;DHT22;7103;54.300;10.180;2022-10-31T05:25:21;13.50;99.90
14057;DHT22;7103;54.300;10.180;2022-10-31T05:27:50;13.40;99.90
14057;DHT22;7103;54.300;10.180;2022-10-31T05:30:22;13.40;99.90
14057;DHT22;7103;54.300;10.180;2022-10-31T05:32:50;13.40;99.90
14057;DHT22;7103;54.300;10.180;2022-10-31T05:35:19;13.40;99.90
14057;DHT22;7103;54.300;10.180;2022-10-31T05:37:46;13.40;99.90
14057;DHT22;7103;54.300;10.180;2022-10-31T05:40:15;13.40;99.90
14057;DHT22;7103;54.300;10.180;2022-10-31T05:42:42;13.40;99.90
14057;DHT22;7103;54.300;10.180;2022-10-31T05:45:17;13.40;99.90
14057;DHT22;7103;54.300;10.180;2022-10-31T05:47:55;13.40;99.90
14057;DHT22;7103;54.300;10.180;2022-10-31T05:50:24;13.40;99.90
14057;DHT22;7103;54.300;10.180;2022-10-31T05:53:02;13.40;99.90
14057;DHT22;7103;54.300;10.180;2022-10-31T05:55:29;13.50;99.90
14057;DHT22;7103;54.300;10.180;2022-10-31T05:57:56;13.50;99.90
14057;DHT22;7103;54.300;10.180;2022-10-31T06:00:25;13.50;99.90
14057;DHT22;7103;54.300;10.180;2022-10-31T06:03:00;13.50;99.90
14057;DHT22;7103;54.300;10.180;2022-10-31T06:05:28;13.50;99.90
14057;DHT22;7103;54.300;10.180;2022-10-31T06:07:55;13.50;99.90
14057;DHT22;7103;54.300;10.180;2022-10-31T06:10:22;13.50;99.90
14057;DHT22;7103;54.300;10.180;2022-10-31T06:12:49;13.50;99.90
14057;DHT22;7103;54.300;10.180;2022-10-31T06:15:16;13.50;99.90
14057;DHT22;7103;54.300;10.180;2022-10-31T06:18:03;13.40;99.90
14057;DHT22;7103;54.300;10.180;2022-10-31T06:20:31;13.40;99.90
14057;DHT22;7103;54.300;10.180;2022-10-31T06:22:59;13.30;99.90
14057;DHT22;7103;54.300;10.180;2022-10-31T06:25:27;13.20;99.90
14057;DHT22;7103;54.300;10.180;2022-10-31T06:27:54;13.20;99.90
14057;DHT22;7103;54.300;10.180;2022-10-31T06:30:21;13.30;99.90
14057;DHT22;7103;54.300;10.180;2022-10-31T06:32:48;13.30;99.90
14057;DHT22;7103;54.300;10.180;2022-10-31T06:35:16;13.20;99.90
14057;DHT22;7103;54.300;10.180;2022-10-31T06:37:51;13.30;99.90
14057;DHT22;7103;54.300;10.180;2022-10-31T06:40:17;13.40;99.90
14057;DHT22;7103;54.300;10.180;2022-10-31T06:42:44;13.40;99.90
14057;DHT22;7103;54.300;10.180;2022-10-31T06:45:11;13.30;99.90
14057;DHT22;7103;54.300;10.180;2022-10-31T06:47:38;13.30;99.90
14057;DHT22;7103;54.300;10.180;2022-10-31T06:50:25;13.30;99.90
14057;DHT22;7103;54.300;10.180;2022-10-31T06:52:56;13.40;99.90
14057;DHT22;7103;54.300;10.180;2022-10-31T06:55:25;13.40;99.90
14057;DHT22;7103;54.300;10.180;2022-10-31T06:57:55;13.60;99.90
14057;DHT22;7103;54.300;10.180;2022-10-31T07:00:29;13.40;99.90
14057;DHT22;7103;54.300;10.180;2022-10-31T07:03:05;13.40;99.90
14057;DHT22;7103;54.300;10.180;2022-10-31T07:05:32;13.40;99.90
14057;DHT22;7103;54.300;10.180;2022-10-31T07:08:01;13.50;99.90
14057;DHT22;7103;54.300;10.180;2022-10-31T07:10:29;13.40;99.90
14057;DHT22;7103;54.300;10.180;2022-10-31T07:13:03;13.50;99.90
14057;DHT22;7103;54.300;10.180;2022-10-31T07:15:34;13.40;99.90
14057;DHT22;7103;54.300;10.180;2022-10-31T07:18:06;13.50;99.90
14057;DHT22;7103;54.300;10.180;2022-10-31T07:20:33;13.40;99.90
14057;DHT22;7103;54.300;10.180;2022-10-31T07:23:00;13.40;99.90
14057;DHT22;7103;54.300;10.180;2022-10-31T07:25:28;13.40;99.90
14057;DHT22;7103;54.300;10.180;2022-10-31T07:27:55;13.40;99.90
14057;DHT22;7103;54.300;10.180;2022-10-31T07:30:22;13.40;99.90
14057;DHT22;7103;54.300;10.180;2022-10-31T07:32:50;13.40;99.90
14057;DHT22;7103;54.300;10.180;2022-10-31T07:35:19;13.50;99.90
14057;DHT22;7103;54.300;10.180;2022-10-31T07:37:47;13.40;99.90
14057;DHT22;7103;54.300;10.180;2022-10-31T07:40:14;13.50;99.90
14057;DHT22;7103;54.300;10.180;2022-10-31T07:42:43;13.50;99.90
14057;DHT22;7103;54.300;10.180;2022-10-31T07:45:12;13.50;99.90
14057;DHT22;7103;54.300;10.180;2022-10-31T07:50:13;13.60;99.90
14057;DHT22;7103;54.300;10.180;2022-10-31T07:52:40;13.60;99.90
14057;DHT22;7103;54.300;10.180;2022-10-31T07:55:07;13.60;99.90
14057;DHT22;7103;54.300;10.180;2022-10-31T07:57:34;13.60;99.90
14057;DHT22;7103;54.300;10.180;2022-10-31T08:00:08;13.60;99.90
14057;DHT22;7103;54.300;10.180;2022-10-31T08:02:35;13.60;99.90
14057;DHT22;7103;54.300;10.180;2022-10-31T08:05:02;13.70;99.90
14057;DHT22;7103;54.300;10.180;2022-10-31T08:07:29;13.70;99.90
14057;DHT22;7103;54.300;10.180;2022-10-31T08:09:56;13.60;99.90
14057;DHT22;7103;54.300;10.180;2022-10-31T08:12:23;13.70;99.90
14057;DHT22;7103;54.300;10.180;2022-10-31T08:14:50;13.60;99.90
14057;DHT22;7103;54.300;10.180;2022-10-31T08:17:17;13.60;99.90
14057;DHT22;7103;54.300;10.180;2022-10-31T08:19:44;13.60;99.90
14057;DHT22;7103;54.300;10.180;2022-10-31T08:22:11;13.60;99.90
14057;DHT22;7103;54.300;10.180;2022-10-31T08:24:37;13.50;99.90
14057;DHT22;7103;54.300;10.180;2022-10-31T08:27:04;13.50;99.90
14057;DHT22;7103;54.300;10.180;2022-10-31T08:29:31;13.50;99.90
14057;DHT22;7103;54.300;10.180;2022-10-31T08:31:58;13.50;99.90
14057;DHT22;7103;54.300;10.180;2022-10-31T08:34:25;13.50;99.90
14057;DHT22;7103;54.300;10.180;2022-10-31T08:36:52;13.60;99.90
14057;DHT22;7103;54.300;10.180;2022-10-31T08:39:19;13.60;99.90
14057;DHT22;7103;54.300;10.180;2022-10-31T08:41:46;13.60;99.90
14057;DHT22;7103;54.300;10.180;2022-10-31T08:44:12;13.60;99.90
14057;DHT22;7103;54.300;10.180;2022-10-31T08:46:39;13.50;99.90
14057;DHT22;7103;54.300;10.180;2022-10-31T08:49:06;13.50;99.90
14057;DHT22;7103;54.300;10.180;2022-10-31T08:51:33;13.40;99.90
14057;DHT22;7103;54.300;10.180;2022-10-31T08:54:00;13.50;99.90
14057;DHT22;7103;54.300;10.180;2022-10-31T08:56:27;13.40;99.90
14057;DHT22;7103;54.300;10.180;2022-10-31T08:58:54;13.40;99.90
14057;DHT22;7103;54.300;10.180;2022-10-31T09:01:21;13.40;99.90
14057;DHT22;7103;54.300;10.180;2022-10-31T09:03:48;13.40;99.90
14057;DHT22;7103;54.300;10.180;2022-10-31T09:06:15;13.30;99.90
14057;DHT22;7103;54.300;10.180;2022-10-31T09:08:42;13.30;99.90
14057;DHT22;7103;54.300;10.180;2022-10-31T09:11:09;13.30;99.90
14057;DHT22;7103;54.300;10.180;2022-10-31T09:13:35;13.30;99.90
14057;DHT22;7103;54.300;10.180;2022-10-31T09:16:07;13.30;99.90
14057;DHT22;7103;54.300;10.180;2022-10-31T09:18:34;13.30;99.90
14057;DHT22;7103;54.300;10.180;2022-10-31T09:21:01;13.40;99.90
14057;DHT22;7103;54.300;10.180;2022-10-31T09:23:27;13.40;99.90
14057;DHT22;7103;54.300;10.180;2022-10-31T09:25:55;13.40;99.90
14057;DHT22;7103;54.300;10.180;2022-10-31T09:28:23;13.40;99.90
14057;DHT22;7103;54.300;10.180;2022-10-31T09:30:52;13.40;99.90
14057;DHT22;7103;54.300;10.180;2022-10-31T09:33:19;13.50;99.90
14057;DHT22;7103;54.300;10.180;2022-10-31T09:35:47;13.50;99.90
14057;DHT22;7103;54.300;10.180;2022-10-31T09:38:16;13.40;99.90
14057;DHT22;7103;54.300;10.180;2022-10-31T09:40:57;13.40;99.90
14057;DHT22;7103;54.300;10.180;2022-10-31T09:44:07;13.40;99.90
14057;DHT22;7103;54.300;10.180;2022-10-31T09:49:35;13.40;99.90
14057;DHT22;7103;54.300;10.180;2022-10-31T09:52:19;13.40;99.90
14057;DHT22;7103;54.300;10.180;2022-10-31T09:54:54;13.40;99.90
14057;DHT22;7103;54.300;10.180;2022-10-31T09:57:29;13.40;99.90
14057;DHT22;7103;54.300;10.180;2022-10-31T09:59:58;13.50;99.90
14057;DHT22;7103;54.300;10.180;2022-10-31T10:02:33;13.60;99.90
14057;DHT22;7103;54.300;10.180;2022-10-31T10:05:18;13.70;99.90
14057;DHT22;7103;54.300;10.180;2022-10-31T10:08:00;13.70;99.90
14057;DHT22;7103;54.300;10.180;2022-10-31T10:10:49;13.60;99.90
14057;DHT22;7103;54.300;10.180;2022-10-31T10:13:55;13.70;99.90
14057;DHT22;7103;54.300;10.180;2022-10-31T10:22:35;13.80;99.90
14057;DHT22;7103;54.300;10.180;2022-10-31T10:30:26;13.90;99.90
14057;DHT22;7103;54.300;10.180;2022-10-31T10:33:04;13.90;99.90
14057;DHT22;7103;54.300;10.180;2022-10-31T10:35:39;14.00;99.90
14057;DHT22;7103;54.300;10.180;2022-10-31T10:40:37;14.10;99.90
14057;DHT22;7103;54.300;10.180;2022-10-31T10:43:33;14.20;99.90
14057;DHT22;7103;54.300;10.180;2022-10-31T10:55:15;14.30;99.90
14057;DHT22;7103;54.300;10.180;2022-10-31T10:57:55;14.40;93.20
14057;DHT22;7103;54.300;10.180;2022-10-31T11:00:30;14.40;56.50
14057;DHT22;7103;54.300;10.180;2022-10-31T11:02:58;14.40;37.50
14057;DHT22;7103;54.300;10.180;2022-10-31T11:05:58;14.40;24.20
14057;DHT22;7103;54.300;10.180;2022-10-31T11:08:33;14.40;1.00
14057;DHT22;7103;54.300;10.180;2022-10-31T11:13:40;14.40;1.00
14057;DHT22;7103;54.300;10.180;2022-10-31T11:18:52;14.40;1.00
14057;DHT22;7103;54.300;10.180;2022-10-31T11:21:25;14.60;1.00
14057;DHT22;7103;54.300;10.180;2022-10-31T11:24:23;14.60;1.00
14057;DHT22;7103;54.300;10.180;2022-10-31T11:27:09;14.60;1.00
14057;DHT22;7103;54.300;10.180;2022-10-31T11:29:38;14.60;1.00
14057;DHT22;7103;54.300;10.180;2022-10-31T11:32:04;14.70;1.00
14057;DHT22;7103;54.300;10.180;2022-10-31T11:34:42;14.80;1.00
14057;DHT22;7103;54.300;10.180;2022-10-31T11:37:24;14.80;1.00
14057;DHT22;7103;54.300;10.180;2022-10-31T11:40:02;14.80;1.00
14057;DHT22;7103;54.300;10.180;2022-10-31T11:42:38;14.70;1.00
14057;DHT22;7103;54.300;10.180;2022-10-31T11:45:15;14.70;1.00
14057;DHT22;7103;54.300;10.180;2022-10-31T11:47:47;14.80;1.00
14057;DHT22;7103;54.300;10.180;2022-10-31T11:50:39;14.80;1.00
14057;DHT22;7103;54.300;10.180;2022-10-31T11:53:33;14.90;1.00
14057;DHT22;7103;54.300;10.180;2022-10-31T11:56:14;14.90;1.00
14057;DHT22;7103;54.300;10.180;2022-10-31T11:58:42;15.10;1.00
14057;DHT22;7103;54.300;10.180;2022-10-31T12:01:30;15.10;1.00
14057;DHT22;7103;54.300;10.180;2022-10-31T12:04:07;15.30;1.00
14057;DHT22;7103;54.300;10.180;2022-10-31T12:06:39;15.20;1.00
14057;DHT22;7103;54.300;10.180;2022-10-31T12:12:00;15.20;1.00
14057;DHT22;7103;54.300;10.180;2022-10-31T12:19:50;15.50;1.00
14057;DHT22;7103;54.300;10.180;2022-10-31T12:25:36;15.50;1.00
14057;DHT22;7103;54.300;10.180;2022-10-31T12:36:34;15.40;99.90
14057;DHT22;7103;54.300;10.180;2022-10-31T12:43:05;15.50;99.90
14057;DHT22;7103;54.300;10.180;2022-10-31T12:45:39;15.50;99.90
14057;DHT22;7103;54.300;10.180;2022-10-31T12:54:01;15.50;99.90
14057;DHT22;7103;54.300;10.180;2022-10-31T13:04:50;15.40;99.90
14057;DHT22;7103;54.300;10.180;2022-10-31T13:07:39;15.50;99.90
14057;DHT22;7103;54.300;10.180;2022-10-31T13:10:19;15.40;99.90
14057;DHT22;7103;54.300;10.180;2022-10-31T13:12:51;15.40;99.90
14057;DHT22;7103;54.300;10.180;2022-10-31T13:15:26;15.30;99.90
14057;DHT22;7103;54.300;10.180;2022-10-31T13:17:59;15.40;99.90
14057;DHT22;7103;54.300;10.180;2022-10-31T13:20:37;15.30;99.90
14057;DHT22;7103;54.300;10.180;2022-10-31T13:26:38;15.00;99.90
14057;DHT22;7103;54.300;10.180;2022-10-31T13:29:20;15.00;99.90
14057;DHT22;7103;54.300;10.180;2022-10-31T13:31:52;15.10;99.90
14057;DHT22;7103;54.300;10.180;2022-10-31T13:34:30;15.10;99.90
14057;DHT22;7103;54.300;10.180;2022-10-31T13:39:51;14.80;99.90
14057;DHT22;7103;54.300;10.180;2022-10-31T13:45:24;15.00;99.90
14057;DHT22;7103;54.300;10.180;2022-10-31T13:50:31;15.20;99.90
14057;DHT22;7103;54.300;10.180;2022-10-31T13:53:20;15.10;99.90
14057;DHT22;7103;54.300;10.180;2022-10-31T13:55:50;15.00;99.90
14057;DHT22;7103;54.300;10.180;2022-10-31T13:58:24;14.90;99.90
14057;DHT22;7103;54.300;10.180;2022-10-31T14:03:39;14.80;99.90
14057;DHT22;7103;54.300;10.180;2022-10-31T14:09:34;14.70;99.90
14057;DHT22;7103;54.300;10.180;2022-10-31T14:12:08;14.60;99.90
14057;DHT22;7103;54.300;10.180;2022-10-31T14:14:47;14.60;99.90
14057;DHT22;7103;54.300;10.180;2022-10-31T14:17:22;14.60;99.90
14057;DHT22;7103;54.300;10.180;2022-10-31T14:20:02;14.60;99.90
14057;DHT22;7103;54.300;10.180;2022-10-31T14:22:31;14.50;99.90
14057;DHT22;7103;54.300;10.180;2022-10-31T14:27:52;14.40;99.90
14057;DHT22;7103;54.300;10.180;2022-10-31T14:30:25;14.40;99.90
14057;DHT22;7103;54.300;10.180;2022-10-31T14:33:18;14.40;99.90
14057;DHT22;7103;54.300;10.180;2022-10-31T14:43:52;14.20;99.90
14057;DHT22;7103;54.300;10.180;2022-10-31T14:52:14;14.10;99.90
14057;DHT22;7103;54.300;10.180;2022-10-31T14:54:51;14.10;99.90
14057;DHT22;7103;54.300;10.180;2022-10-31T14:57:26;13.80;99.90
14057;DHT22;7103;54.300;10.180;2022-10-31T15:00:07;13.90;99.90
14057;DHT22;7103;54.300;10.180;2022-10-31T15:05:13;14.00;99.90
14057;DHT22;7103;54.300;10.180;2022-10-31T15:07:55;14.10;99.90
14057;DHT22;7103;54.300;10.180;2022-10-31T15:12:51;14.10;99.90
14057;DHT22;7103;54.300;10.180;2022-10-31T15:15:21;13.90;99.90
14057;DHT22;7103;54.300;10.180;2022-10-31T15:18:06;13.80;99.90
14057;DHT22;7103;54.300;10.180;2022-10-31T15:20:43;13.70;99.90
14057;DHT22;7103;54.300;10.180;2022-10-31T15:23:25;13.80;99.90
14057;DHT22;7103;54.300;10.180;2022-10-31T15:26:03;13.80;99.90
14057;DHT22;7103;54.300;10.180;2022-10-31T15:28:31;13.80;99.90
14057;DHT22;7103;54.300;10.180;2022-10-31T15:31:01;13.50;99.90
14057;DHT22;7103;54.300;10.180;2022-10-31T15:33:30;13.60;99.90
14057;DHT22;7103;54.300;10.180;2022-10-31T15:36:05;13.40;99.90
14057;DHT22;7103;54.300;10.180;2022-10-31T15:38:32;13.40;1.00
14057;DHT22;7103;54.300;10.180;2022-10-31T15:41:03;13.30;1.00
14057;DHT22;7103;54.300;10.180;2022-10-31T15:43:35;13.30;1.00
14057;DHT22;7103;54.300;10.180;2022-10-31T15:46:06;13.30;1.00
14057;DHT22;7103;54.300;10.180;2022-10-31T15:48:33;13.30;1.00
14057;DHT22;7103;54.300;10.180;2022-10-31T15:51:01;13.30;1.00
14057;DHT22;7103;54.300;10.180;2022-10-31T15:53:49;13.30;1.00
14057;DHT22;7103;54.300;10.180;2022-10-31T15:56:22;13.30;1.00
14057;DHT22;7103;54.300;10.180;2022-10-31T15:58:51;13.30;1.00
14057;DHT22;7103;54.300;10.180;2022-10-31T16:06:32;13.20;1.00
14057;DHT22;7103;54.300;10.180;2022-10-31T16:08:59;13.30;1.00
14057;DHT22;7103;54.300;10.180;2022-10-31T16:11:35;13.30;1.00
14057;DHT22;7103;54.300;10.180;2022-10-31T16:16:43;13.30;1.00
14057;DHT22;7103;54.300;10.180;2022-10-31T16:21:49;13.30;1.00
14057;DHT22;7103;54.300;10.180;2022-10-31T16:24:25;13.30;1.00
14057;DHT22;7103;54.300;10.180;2022-10-31T16:26:54;13.20;1.00
14057;DHT22;7103;54.300;10.180;2022-10-31T16:29:32;13.30;1.00
14057;DHT22;7103;54.300;10.180;2022-10-31T16:31:59;13.20;1.00
14057;DHT22;7103;54.300;10.180;2022-10-31T16:34:25;13.20;1.00
14057;DHT22;7103;54.300;10.180;2022-10-31T16:36:53;13.20;1.00
14057;DHT22;7103;54.300;10.180;2022-10-31T16:39:20;13.30;1.00
14057;DHT22;7103;54.300;10.180;2022-10-31T16:41:55;13.20;1.00
14057;DHT22;7103;54.300;10.180;2022-10-31T16:44:24;13.20;1.00
14057;DHT22;7103;54.300;10.180;2022-10-31T16:49:35;13.20;1.00
14057;DHT22;7103;54.300;10.180;2022-10-31T16:52:02;13.20;1.00
14057;DHT22;7103;54.300;10.180;2022-10-31T16:54:29;13.20;1.00
14057;DHT22;7103;54.300;10.180;2022-10-31T16:56:58;13.30;1.00
14057;DHT22;7103;54.300;10.180;2022-10-31T16:59:26;13.30;1.00
14057;DHT22;7103;54.300;10.180;2022-10-31T17:01:54;13.30;1.00
14057;DHT22;7103;54.300;10.180;2022-10-31T17:04:21;13.30;1.00
14057;DHT22;7103;54.300;10.180;2022-10-31T17:06:48;13.20;1.00
14057;DHT22;7103;54.300;10.180;2022-10-31T17:09:15;13.10;1.00
14057;DHT22;7103;54.300;10.180;2022-10-31T17:11:48;13.10;1.00
14057;DHT22;7103;54.300;10.180;2022-10-31T17:14:17;13.10;1.00
14057;DHT22;7103;54.300;10.180;2022-10-31T17:16:45;13.10;1.00
14057;DHT22;7103;54.300;10.180;2022-10-31T17:19:12;13.10;1.00
14057;DHT22;7103;54.300;10.180;2022-10-31T17:21:39;13.10;1.00
14057;DHT22;7103;54.300;10.180;2022-10-31T17:24:12;12.90;1.00
14057;DHT22;7103;54.300;10.180;2022-10-31T17:26:40;13.00;1.00
14057;DHT22;7103;54.300;10.180;2022-10-31T17:29:07;13.00;1.00
14057;DHT22;7103;54.300;10.180;2022-10-31T17:31:35;13.20;1.00
14057;DHT22;7103;54.300;10.180;2022-10-31T17:34:02;13.10;1.00
14057;DHT22;7103;54.300;10.180;2022-10-31T17:36:34;12.90;1.00
14057;DHT22;7103;54.300;10.180;2022-10-31T17:39:02;12.90;1.00
14057;DHT22;7103;54.300;10.180;2022-10-31T17:41:31;12.80;1.00
14057;DHT22;7103;54.300;10.180;2022-10-31T17:43:58;12.80;1.00
14057;DHT22;7103;54.300;10.180;2022-10-31T17:46:25;12.70;1.00
14057;DHT22;7103;54.300;10.180;2022-10-31T17:48:54;12.80;1.00
14057;DHT22;7103;54.300;10.180;2022-10-31T17:51:20;12.70;1.00
14057;DHT22;7103;54.300;10.180;2022-10-31T17:53:47;12.80;1.00
14057;DHT22;7103;54.300;10.180;2022-10-31T17:56:14;12.70;1.00
14057;DHT22;7103;54.300;10.180;2022-10-31T17:58:41;12.70;1.00
14057;DHT22;7103;54.300;10.180;2022-10-31T18:01:10;12.80;1.00
14057;DHT22;7103;54.300;10.180;2022-10-31T18:03:38;12.70;1.00
14057;DHT22;7103;54.300;10.180;2022-10-31T18:06:05;12.70;1.00
14057;DHT22;7103;54.300;10.180;2022-10-31T18:08:34;12.60;1.00
14057;DHT22;7103;54.300;10.180;2022-10-31T18:11:06;12.60;1.00
14057;DHT22;7103;54.300;10.180;2022-10-31T18:13:36;12.40;1.00
14057;DHT22;7103;54.300;10.180;2022-10-31T18:16:14;12.50;1.00
14057;DHT22;7103;54.300;10.180;2022-10-31T18:18:42;12.50;1.00
14057;DHT22;7103;54.300;10.180;2022-10-31T18:21:09;12.60;1.00
14057;DHT22;7103;54.300;10.180;2022-10-31T18:23:36;12.60;1.00
14057;DHT22;7103;54.300;10.180;2022-10-31T18:26:03;12.60;1.00
14057;DHT22;7103;54.300;10.180;2022-10-31T18:28:30;12.60;1.00
14057;DHT22;7103;54.300;10.180;2022-10-31T18:30:58;12.60;1.00
14057;DHT22;7103;54.300;10.180;2022-10-31T18:33:26;12.70;1.00
14057;DHT22;7103;54.300;10.180;2022-10-31T18:35:53;12.60;1.00
14057;DHT22;7103;54.300;10.180;2022-10-31T18:38:20;12.50;1.00
14057;DHT22;7103;54.300;10.180;2022-10-31T18:40:46;12.50;1.00
14057;DHT22;7103;54.300;10.180;2022-10-31T18:43:13;12.50;1.00